createdAt,value
2022-12-01T00:01:15.968Z,102547.41
2022-12-01T00:03:44.423Z,102545.63
2022-12-01T00:06:15.508Z,102551.94
2022-12-01T00:09:06.548Z,102542.44
2022-12-01T00:11:33.996Z,102536.88
2022-12-01T00:14:01.904Z,102551.84
2022-12-01T00:16:30.241Z,102541.31
2022-12-01T00:18:58.532Z,102521.41
2022-12-01T00:21:27.411Z,102527.50
2022-12-01T00:23:58.241Z,102529.16
2022-12-01T00:26:27.233Z,102527.56
2022-12-01T00:28:57.156Z,102538.09
2022-12-01T00:31:25.150Z,102541.31
2022-12-01T00:33:53.225Z,102543.16
2022-12-01T00:36:21.313Z,102541.50
2022-12-01T00:38:52.524Z,102544.94
2022-12-01T00:41:22.084Z,102546.34
2022-12-01T00:43:50.092Z,102539.16
2022-12-01T00:46:18.062Z,102545.88
2022-12-01T00:48:45.897Z,102559.03
2022-12-01T00:51:13.734Z,102558.28
2022-12-01T00:53:41.551Z,102551.34
2022-12-01T00:56:09.409Z,102555.66
2022-12-01T00:58:38.640Z,102556.16
2022-12-01T01:01:06.864Z,102557.03
2022-12-01T01:03:35.513Z,102551.63
2022-12-01T01:06:08.594Z,102538.91
2022-12-01T01:08:36.936Z,102559.09
2022-12-01T01:11:05.404Z,102563.22
2022-12-01T01:13:33.868Z,102562.66
2022-12-01T01:16:05.450Z,102561.00
2022-12-01T01:18:33.839Z,102558.97
2022-12-01T01:21:03.871Z,102559.84
2022-12-01T01:23:31.955Z,102571.16
2022-12-01T01:26:03.233Z,102567.50
2022-12-01T01:28:31.602Z,102571.31
2022-12-01T01:30:59.881Z,102554.94
2022-12-01T01:33:29.173Z,102568.81
2022-12-01T01:36:00.042Z,102550.34
2022-12-01T01:38:28.047Z,102572.38
2022-12-01T01:40:56.051Z,102567.19
2022-12-01T01:43:42.043Z,102569.50
2022-12-01T01:46:12.181Z,102568.53
2022-12-01T01:48:43.415Z,102569.69
2022-12-01T01:51:13.304Z,102565.66
2022-12-01T01:53:41.740Z,102563.22
2022-12-01T01:56:10.476Z,102566.19
2022-12-01T01:58:39.920Z,102561.09
2022-12-01T02:01:08.508Z,102563.78
2022-12-01T02:03:39.786Z,102538.03
2022-12-01T02:06:10.682Z,102561.03
2022-12-01T02:08:39.032Z,102556.53
2022-12-01T02:11:31.603Z,102560.88
2022-12-01T02:14:09.425Z,102566.72
2022-12-01T02:16:45.315Z,102562.09
2022-12-01T02:19:37.925Z,102563.84
2022-12-01T02:22:20.136Z,102504.22
2022-12-01T02:25:03.927Z,102570.97
2022-12-01T02:27:50.352Z,102583.06
2022-12-01T02:30:20.347Z,102576.28
2022-12-01T02:33:05.333Z,102557.59
2022-12-01T02:35:39.231Z,102567.28
2022-12-01T02:38:16.196Z,102571.03
2022-12-01T02:40:51.533Z,102566.63
2022-12-01T02:43:28.426Z,102576.19
2022-12-01T02:46:01.354Z,102561.09
2022-12-01T02:48:33.477Z,102578.72
2022-12-01T02:51:07.395Z,102571.06
2022-12-01T02:53:35.821Z,102568.63
2022-12-01T02:56:08.892Z,102567.16
2022-12-01T02:58:37.015Z,102565.31
2022-12-01T03:01:27.571Z,102556.28
2022-12-01T03:04:04.578Z,102563.22
2022-12-01T03:06:43.187Z,102574.81
2022-12-01T03:09:18.827Z,102442.44
2022-12-01T03:11:57.456Z,102573.81
2022-12-01T03:14:35.406Z,102566.91
2022-12-01T03:17:09.075Z,102569.53
2022-12-01T03:19:44.280Z,102580.41
2022-12-01T03:22:15.182Z,102566.63
2022-12-01T03:24:47.471Z,102568.53
2022-12-01T03:27:17.642Z,102567.69
2022-12-01T03:29:49.714Z,102570.03
2022-12-01T03:32:23.766Z,102571.44
2022-12-01T03:34:57.279Z,102577.13
2022-12-01T03:37:31.692Z,102577.13
2022-12-01T03:40:01.764Z,102578.41
2022-12-01T03:42:36.860Z,102576.78
2022-12-01T03:45:08.537Z,102567.47
2022-12-01T03:47:37.784Z,102561.56
2022-12-01T03:50:13.226Z,102538.50
2022-12-01T03:52:49.544Z,102570.13
2022-12-01T03:55:21.647Z,102563.13
2022-12-01T03:57:54.879Z,102573.38
2022-12-01T04:00:23.300Z,102562.78
2022-12-01T04:02:56.697Z,102569.78
2022-12-01T04:05:26.524Z,102580.22
2022-12-01T04:07:54.649Z,102570.59
2022-12-01T04:10:22.876Z,102582.66
2022-12-01T04:12:49.972Z,102577.81
2022-12-01T04:15:18.207Z,102575.03
2022-12-01T04:17:46.070Z,102573.38
2022-12-01T04:20:15.423Z,102579.41
2022-12-01T04:22:45.038Z,102579.66
2022-12-01T04:25:12.950Z,102579.66
2022-12-01T04:27:40.919Z,102590.88
2022-12-01T04:30:10.620Z,102592.84
2022-12-01T04:32:39.891Z,102572.03
2022-12-01T04:35:08.664Z,102590.88
2022-12-01T04:37:36.459Z,102590.47
2022-12-01T04:40:07.225Z,102583.66
2022-12-01T04:42:35.022Z,102587.88
2022-12-01T04:45:02.851Z,102599.31
2022-12-01T04:47:30.693Z,102597.03
2022-12-01T04:49:58.481Z,102596.94
2022-12-01T04:52:29.476Z,102609.59
2022-12-01T04:55:01.475Z,102609.91
2022-12-01T04:57:30.654Z,102605.69
2022-12-01T04:59:58.476Z,102595.91
2022-12-01T05:02:26.413Z,102608.75
2022-12-01T05:04:54.323Z,102602.56
2022-12-01T05:07:22.163Z,102610.72
2022-12-01T05:09:50.350Z,102602.94
2022-12-01T05:12:18.672Z,102603.19
2022-12-01T05:14:48.969Z,102606.06
2022-12-01T05:17:16.795Z,102608.50
2022-12-01T05:20:01.946Z,102579.78
2022-12-01T05:22:57.245Z,102609.31
2022-12-01T05:25:17.768Z,102618.31
2022-12-01T05:27:45.644Z,102614.84
2022-12-01T05:30:15.046Z,102617.25
2022-12-01T05:32:42.887Z,102620.91
2022-12-01T05:35:10.967Z,102607.72
2022-12-01T05:37:38.739Z,102620.81
2022-12-01T05:40:08.490Z,102623.69
2022-12-01T05:42:36.337Z,102625.16
2022-12-01T05:45:04.346Z,102591.59
2022-12-01T05:47:33.522Z,102624.84
2022-12-01T05:50:05.583Z,102619.94
2022-12-01T05:52:34.526Z,102621.69
2022-12-01T05:55:02.468Z,102616.41
2022-12-01T05:57:30.345Z,102624.84
2022-12-01T05:59:58.197Z,102610.00
2022-12-01T06:02:27.172Z,102619.81
2022-12-01T06:04:56.397Z,102611.00
2022-12-01T06:07:25.939Z,102623.16
2022-12-01T06:09:54.294Z,102600.66
2022-12-01T06:12:22.137Z,102627.63
2022-12-01T06:14:49.951Z,102625.00
2022-12-01T06:17:17.823Z,102621.44
2022-12-01T06:19:47.825Z,102627.19
2022-12-01T06:22:17.465Z,102635.34
2022-12-01T06:24:45.275Z,102626.66
2022-12-01T06:27:13.058Z,102630.06
2022-12-01T06:29:48.007Z,102632.75
2022-12-01T06:32:15.880Z,102553.47
2022-12-01T06:34:43.863Z,102631.78
2022-12-01T06:37:11.808Z,102627.53
2022-12-01T06:39:41.013Z,102640.41
2022-12-01T06:42:08.847Z,102613.94
2022-12-01T06:44:36.683Z,102628.16
2022-12-01T06:47:04.566Z,102642.19
2022-12-01T06:49:32.396Z,102638.75
2022-12-01T06:52:01.176Z,102636.94
2022-12-01T06:54:29.068Z,102648.28
2022-12-01T06:56:58.534Z,102649.97
2022-12-01T06:59:27.096Z,102643.84
2022-12-01T07:01:56.400Z,102642.19
2022-12-01T07:04:24.534Z,102651.78
2022-12-01T07:06:52.356Z,102649.88
2022-12-01T07:09:20.294Z,102639.78
2022-12-01T07:11:48.107Z,102662.44
2022-12-01T07:14:24.319Z,102664.81
2022-12-01T07:16:52.246Z,102658.00
2022-12-01T07:19:20.127Z,102656.97
2022-12-01T07:21:48.178Z,102664.72
2022-12-01T07:24:16.088Z,102658.00
2022-12-01T07:26:44.539Z,102666.94
2022-12-01T07:29:12.961Z,102668.50
2022-12-01T07:31:42.182Z,102671.09
2022-12-01T07:34:13.470Z,102663.50
2022-12-01T07:36:41.271Z,102664.13
2022-12-01T07:39:10.029Z,102680.56
2022-12-01T07:41:37.812Z,102673.56
2022-12-01T07:44:05.890Z,102679.41
2022-12-01T07:46:33.983Z,102668.34
2022-12-01T07:49:06.737Z,102681.47
2022-12-01T07:51:34.935Z,102677.22
2022-12-01T07:54:03.688Z,102679.03
2022-12-01T07:56:31.965Z,102686.84
2022-12-01T07:58:59.804Z,102683.28
2022-12-01T08:01:27.825Z,102678.00
2022-12-01T08:03:57.155Z,102677.28
2022-12-01T08:06:27.406Z,102682.56
2022-12-01T08:08:55.217Z,102681.97
2022-12-01T08:11:25.162Z,102685.72
2022-12-01T08:13:53.888Z,102681.75
2022-12-01T08:16:24.021Z,102687.97
2022-12-01T08:18:52.429Z,102692.25
2022-12-01T08:21:24.396Z,102687.19
2022-12-01T08:23:56.456Z,102688.94
2022-12-01T08:26:25.925Z,102665.06
2022-12-01T08:28:53.716Z,102686.88
2022-12-01T08:31:25.259Z,102694.91
2022-12-01T08:33:53.863Z,102599.31
2022-12-01T08:36:22.746Z,102706.47
2022-12-01T08:38:52.556Z,102697.59
2022-12-01T08:41:22.269Z,102701.00
2022-12-01T08:43:57.810Z,102706.53
2022-12-01T08:46:26.865Z,102704.03
2022-12-01T08:48:57.516Z,102666.56
2022-12-01T08:51:26.235Z,102593.75
2022-12-01T08:53:54.136Z,102707.13
2022-12-01T08:56:25.593Z,102705.88
2022-12-01T08:58:54.964Z,102709.41
2022-12-01T09:01:23.376Z,102703.38
2022-12-01T09:04:05.233Z,102640.72
2022-12-01T09:06:35.007Z,102714.72
2022-12-01T09:09:02.898Z,102711.16
2022-12-01T09:11:32.114Z,102716.69
2022-12-01T09:14:00.347Z,102723.81
2022-12-01T09:16:28.246Z,102714.69
2022-12-01T09:18:56.606Z,102695.78
2022-12-01T09:21:27.552Z,102710.97
2022-12-01T09:23:55.889Z,102710.97
2022-12-01T09:26:24.631Z,102714.66
2022-12-01T09:28:57.172Z,102710.41
2022-12-01T09:31:25.349Z,102700.47
2022-12-01T09:33:56.563Z,102699.47
2022-12-01T09:36:24.736Z,102700.91
2022-12-01T09:38:52.780Z,102699.75
2022-12-01T09:41:24.154Z,102702.28
2022-12-01T09:43:59.224Z,102702.03
2022-12-01T09:46:33.300Z,102694.13
2022-12-01T09:49:04.249Z,102710.44
2022-12-01T09:51:36.211Z,102693.47
2022-12-01T09:54:04.868Z,102699.91
2022-12-01T09:56:37.622Z,102697.47
2022-12-01T09:59:12.299Z,102702.06
2022-12-01T10:01:44.513Z,102707.88
2022-12-01T10:04:19.131Z,102706.09
2022-12-01T10:06:52.913Z,102697.06
2022-12-01T10:09:25.576Z,102682.38
2022-12-01T10:11:59.222Z,102687.88
2022-12-01T10:14:33.775Z,102696.91
2022-12-01T10:17:10.777Z,102700.66
2022-12-01T10:19:46.013Z,102693.53
2022-12-01T10:22:40.952Z,102697.06
2022-12-01T10:25:21.272Z,102701.31
2022-12-01T10:28:00.176Z,102685.44
2022-12-01T10:30:29.650Z,102689.16
2022-12-01T10:33:02.492Z,102686.38
2022-12-01T10:35:36.172Z,102687.88
2022-12-01T10:38:06.984Z,102687.03
2022-12-01T10:40:35.338Z,102685.03
2022-12-01T10:43:04.020Z,102686.25
2022-12-01T10:45:36.810Z,102666.31
2022-12-01T10:48:17.142Z,102677.81
2022-12-01T10:50:46.307Z,102686.44
2022-12-01T10:53:38.136Z,102680.13
2022-12-01T10:56:11.020Z,102685.94
2022-12-01T10:58:45.331Z,102683.94
2022-12-01T11:01:21.531Z,102681.84
2022-12-01T11:03:56.977Z,102684.63
2022-12-01T11:06:29.014Z,102668.31
2022-12-01T11:08:58.987Z,102682.38
2022-12-01T11:11:32.747Z,102687.38
2022-12-01T11:14:03.083Z,102680.34
2022-12-01T11:16:43.945Z,102689.13
2022-12-01T11:19:26.854Z,102682.00
2022-12-01T11:21:57.124Z,102685.47
2022-12-01T11:24:42.153Z,102678.34
2022-12-01T11:27:17.432Z,102675.13
2022-12-01T11:29:47.500Z,102664.75
2022-12-01T11:32:22.565Z,102665.25
2022-12-01T11:34:53.867Z,102660.31
2022-12-01T11:37:25.601Z,102600.59
2022-12-01T11:39:56.400Z,102638.97
2022-12-01T11:42:27.438Z,102652.53
2022-12-01T11:44:58.318Z,102615.94
2022-12-01T11:47:29.150Z,102616.31
2022-12-01T11:49:58.711Z,102654.59
2022-12-01T11:52:30.579Z,102648.66
2022-12-01T11:55:05.562Z,102608.25
2022-12-01T11:57:38.649Z,102648.56
2022-12-01T12:00:14.963Z,102651.16
2022-12-01T12:02:54.164Z,102647.75
2022-12-01T12:05:40.878Z,102649.47
2022-12-01T12:08:18.330Z,102651.09
2022-12-01T12:10:54.530Z,102640.94
2022-12-01T12:13:51.694Z,102653.19
2022-12-01T12:16:30.296Z,102653.59
2022-12-01T12:19:18.225Z,102653.53
2022-12-01T12:21:56.132Z,102650.22
2022-12-01T12:24:38.212Z,102648.00
2022-12-01T12:27:15.060Z,102662.28
2022-12-01T12:29:59.844Z,102662.38
2022-12-01T12:32:41.601Z,102661.84
2022-12-01T12:35:24.006Z,102664.97
2022-12-01T12:38:01.369Z,102659.16
2022-12-01T12:40:40.047Z,102661.88
2022-12-01T12:43:21.990Z,102664.13
2022-12-01T12:46:01.388Z,102656.19
2022-12-01T12:48:57.299Z,102675.53
2022-12-01T12:51:36.544Z,102663.88
2022-12-01T12:54:14.917Z,102667.66
2022-12-01T12:56:47.489Z,102666.13
2022-12-01T12:59:21.392Z,102652.22
2022-12-01T13:01:56.287Z,102660.22
2022-12-01T13:04:31.817Z,102652.56
2022-12-01T13:07:05.063Z,102656.97
2022-12-01T13:09:39.963Z,102638.44
2022-12-01T13:12:15.734Z,102657.72
2022-12-01T13:14:48.240Z,102643.53
2022-12-01T13:17:22.567Z,102638.34
2022-12-01T13:19:51.040Z,102638.03
2022-12-01T13:22:25.742Z,102635.06
2022-12-01T13:24:53.525Z,102628.22
2022-12-01T13:27:24.485Z,102610.00
2022-12-01T13:29:54.802Z,102620.13
2022-12-01T13:32:32.968Z,102624.69
2022-12-01T13:35:02.669Z,102618.84
2022-12-01T13:37:34.234Z,102616.94
2022-12-01T13:40:10.522Z,102623.97
2022-12-01T13:42:39.885Z,102618.91
2022-12-01T13:45:19.067Z,102608.13
2022-12-01T13:47:54.332Z,102613.81
2022-12-01T13:50:57.095Z,102614.06
2022-12-01T13:53:36.673Z,102606.22
2022-12-01T13:56:39.254Z,102613.91
2022-12-01T13:59:42.936Z,102600.09
2022-12-01T14:02:20.844Z,102619.16
2022-12-01T14:04:49.584Z,102607.28
2022-12-01T14:07:38.059Z,102620.75
2022-12-01T14:10:26.963Z,102622.19
2022-12-01T14:12:58.860Z,102625.00
2022-12-01T14:15:33.231Z,102630.06
2022-12-01T14:18:05.517Z,102627.56
2022-12-01T14:20:37.774Z,102623.97
2022-12-01T14:23:15.090Z,102616.72
2022-12-01T14:25:57.520Z,102566.81
2022-12-01T14:29:11.465Z,102618.09
2022-12-01T14:32:22.669Z,102629.03
2022-12-01T14:35:12.423Z,102632.38
2022-12-01T14:37:48.588Z,102621.50
2022-12-01T14:40:31.331Z,102622.13
2022-12-01T14:43:19.943Z,102626.97
2022-12-01T14:45:56.599Z,102625.50
2022-12-01T14:48:29.116Z,102622.31
2022-12-01T14:51:13.256Z,102617.94
2022-12-01T14:53:45.924Z,102622.97
2022-12-01T14:56:17.403Z,102627.44
2022-12-01T14:58:55.603Z,102627.19
2022-12-01T15:01:24.460Z,102635.75
2022-12-01T15:03:55.677Z,102634.84
2022-12-01T15:06:25.477Z,102626.06
2022-12-01T15:09:32.242Z,102609.31
2022-12-01T15:11:56.962Z,102513.88
2022-12-01T15:14:32.951Z,102632.16
2022-12-01T15:17:02.577Z,102634.06
2022-12-01T15:19:33.180Z,102624.25
2022-12-01T15:22:05.559Z,102619.47
2022-12-01T15:24:34.155Z,102621.13
2022-12-01T15:27:04.190Z,102588.72
2022-12-01T15:29:38.697Z,102620.78
2022-12-01T15:32:09.519Z,102621.13
2022-12-01T15:34:39.539Z,102622.81
2022-12-01T15:37:12.237Z,102633.47
2022-12-01T15:39:44.899Z,102636.75
2022-12-01T15:42:23.443Z,102630.69
2022-12-01T15:45:00.997Z,102626.47
2022-12-01T15:47:36.897Z,102630.97
2022-12-01T15:50:06.570Z,102631.41
2022-12-01T15:52:43.426Z,102628.31
2022-12-01T15:55:25.174Z,102629.94
2022-12-01T15:57:53.153Z,102635.00
2022-12-01T16:00:23.478Z,102629.75
2022-12-01T16:02:53.834Z,102633.59
2022-12-01T16:05:25.746Z,102628.88
2022-12-01T16:10:41.586Z,102637.53
2022-12-01T16:13:42.889Z,102638.59
2022-12-01T16:16:37.073Z,102613.78
2022-12-01T16:19:22.726Z,102635.25
2022-12-01T16:21:53.444Z,102601.53
2022-12-01T16:24:24.815Z,102638.59
2022-12-01T16:26:55.757Z,102645.53
2022-12-01T16:29:25.801Z,102592.66
2022-12-01T16:32:19.308Z,102641.91
2022-12-01T16:34:56.799Z,102640.16
2022-12-01T16:37:24.748Z,102648.94
2022-12-01T16:39:53.501Z,102649.03
2022-12-01T16:42:22.398Z,102612.16
2022-12-01T16:44:51.570Z,102653.50
2022-12-01T16:47:23.023Z,102645.75
2022-12-01T16:49:50.871Z,102645.75
2022-12-01T16:52:43.552Z,102653.47
2022-12-01T16:55:23.779Z,102651.03
2022-12-01T16:57:51.618Z,102627.13
2022-12-01T17:00:20.233Z,102654.25
2022-12-01T17:02:49.518Z,102653.75
2022-12-01T17:05:17.758Z,102640.53
2022-12-01T17:07:46.556Z,102656.97
2022-12-01T17:10:15.190Z,102653.03
2022-12-01T17:12:43.011Z,102656.28
2022-12-01T17:15:11.505Z,102657.81
2022-12-01T17:17:39.671Z,102614.38
2022-12-01T17:20:10.398Z,102655.69
2022-12-01T17:22:38.747Z,102650.78
2022-12-01T17:25:09.470Z,102646.31
2022-12-01T17:27:37.642Z,102664.56
2022-12-01T17:30:06.390Z,102648.94
2022-12-01T17:32:34.196Z,102654.31
2022-12-01T17:35:02.031Z,102654.25
2022-12-01T17:37:31.556Z,102656.97
2022-12-01T17:39:59.429Z,102649.13
2022-12-01T17:42:27.280Z,102653.16
2022-12-01T17:44:55.122Z,102641.81
2022-12-01T17:47:23.978Z,102637.53
2022-12-01T17:49:51.897Z,102663.56
2022-12-01T17:52:22.180Z,102657.53
2022-12-01T17:54:58.673Z,102661.84
2022-12-01T17:57:26.599Z,102641.53
2022-12-01T17:59:55.672Z,102649.84
2022-12-01T18:02:23.747Z,102669.81
2022-12-01T18:04:51.915Z,102667.22
2022-12-01T18:07:19.868Z,102674.25
2022-12-01T18:09:47.689Z,102664.69
2022-12-01T18:12:16.855Z,102672.03
2022-12-01T18:14:44.750Z,102667.38
2022-12-01T18:17:12.514Z,102667.84
2022-12-01T18:19:40.506Z,102666.25
2022-12-01T18:22:08.336Z,102666.38
2022-12-01T18:24:36.305Z,102670.09
2022-12-01T18:27:04.195Z,102667.47
2022-12-01T18:29:33.971Z,102666.88
2022-12-01T18:32:02.244Z,102653.34
2022-12-01T18:34:30.401Z,102663.84
2022-12-01T18:36:58.344Z,102655.00
2022-12-01T18:39:26.150Z,102669.91
2022-12-01T18:41:54.140Z,102650.53
2022-12-01T18:44:22.085Z,102668.09
2022-12-01T18:46:51.542Z,102676.63
2022-12-01T18:49:20.108Z,102639.16
2022-12-01T18:51:47.940Z,102666.63
2022-12-01T18:54:16.775Z,102672.63
2022-12-01T18:56:45.944Z,102677.91
2022-12-01T18:59:16.877Z,102673.56
2022-12-01T19:01:46.450Z,102665.50
2022-12-01T19:04:17.077Z,102652.63
2022-12-01T19:06:46.666Z,102608.84
2022-12-01T19:09:16.494Z,102665.28
2022-12-01T19:11:44.433Z,102663.69
2022-12-01T19:14:15.664Z,102656.59
2022-12-01T19:16:43.613Z,102663.41
2022-12-01T19:19:11.985Z,102653.94
2022-12-01T19:21:42.779Z,102648.00
2022-12-01T19:24:10.606Z,102653.81
2022-12-01T19:26:38.782Z,102621.34
2022-12-01T19:29:06.614Z,102654.00
2022-12-01T19:31:34.532Z,102649.69
2022-12-01T19:34:03.667Z,102647.81
2022-12-01T19:36:31.516Z,102642.69
2022-12-01T19:39:03.956Z,102653.03
2022-12-01T19:41:33.740Z,102647.75
2022-12-01T19:44:01.585Z,102648.00
2022-12-01T19:46:29.383Z,102646.31
2022-12-01T19:49:00.134Z,102648.09
2022-12-01T19:51:30.030Z,102654.28
2022-12-01T19:53:58.147Z,102631.63
2022-12-01T19:56:28.411Z,102648.34
2022-12-01T19:58:57.271Z,102641.25
2022-12-01T20:01:25.598Z,102647.47
2022-12-01T20:03:54.689Z,102646.22
2022-12-01T20:06:25.099Z,102612.41
2022-12-01T20:08:53.749Z,102643.00
2022-12-01T20:11:21.583Z,102649.56
2022-12-01T20:13:51.480Z,102649.75
2022-12-01T20:16:21.795Z,102602.56
2022-12-01T20:18:50.418Z,102650.09
2022-12-01T20:21:20.548Z,102643.25
2022-12-01T20:23:51.013Z,102642.31
2022-12-01T20:26:20.351Z,102599.47
2022-12-01T20:28:51.908Z,102643.16
2022-12-01T20:31:22.244Z,102606.25
2022-12-01T20:33:53.085Z,102641.41
2022-12-01T20:36:22.198Z,102636.22
2022-12-01T20:38:50.144Z,102642.22
2022-12-01T20:41:18.515Z,102636.31
2022-12-01T20:43:46.446Z,102643.16
2022-12-01T20:46:16.222Z,102639.84
2022-12-01T20:48:44.101Z,102634.47
2022-12-01T20:51:14.213Z,102639.59
2022-12-01T20:53:54.452Z,102631.94
2022-12-01T20:56:27.754Z,102624.84
2022-12-01T20:58:55.708Z,102644.19
2022-12-01T21:01:25.074Z,102648.44
2022-12-01T21:03:54.038Z,102650.47
2022-12-01T21:06:22.686Z,102647.81
2022-12-01T21:08:51.851Z,102648.63
2022-12-01T21:11:46.598Z,102652.97
2022-12-01T21:14:16.614Z,102654.03
2022-12-01T21:16:49.184Z,102655.78
2022-12-01T21:19:23.650Z,102659.00
2022-12-01T21:21:51.482Z,102655.78
2022-12-01T21:24:22.355Z,102641.78
2022-12-01T21:26:54.475Z,102641.81
2022-12-01T21:29:25.856Z,102642.72
2022-12-01T21:31:59.622Z,102643.16
2022-12-01T21:34:29.631Z,102645.69
2022-12-01T21:37:01.668Z,102639.44
2022-12-01T21:39:30.957Z,102637.53
2022-12-01T21:42:08.113Z,102636.03
2022-12-01T21:44:39.393Z,102629.03
2022-12-01T21:47:20.079Z,102638.22
2022-12-01T21:49:51.957Z,102633.00
2022-12-01T21:52:22.835Z,102637.09
2022-12-01T21:54:51.320Z,102644.81
2022-12-01T21:57:32.537Z,102638.06
2022-12-01T22:00:24.923Z,102639.50
2022-12-01T22:03:05.135Z,102624.91
2022-12-01T22:05:38.856Z,102640.53
2022-12-01T22:08:18.723Z,102631.41
2022-12-01T22:10:56.802Z,102635.09
2022-12-01T22:13:28.438Z,102628.91
2022-12-01T22:15:56.291Z,102630.47
2022-12-01T22:18:30.623Z,102613.00
2022-12-01T22:20:59.877Z,102627.19
2022-12-01T22:23:33.699Z,102635.16
2022-12-01T22:26:01.781Z,102628.97
2022-12-01T22:28:29.841Z,102625.34
2022-12-01T22:30:57.875Z,102598.53
2022-12-01T22:33:29.963Z,102623.22
2022-12-01T22:35:58.007Z,102581.56
2022-12-01T22:38:33.492Z,102627.56
2022-12-01T22:41:05.642Z,102621.16
2022-12-01T22:43:52.861Z,102627.47
2022-12-01T22:46:36.285Z,102619.00
2022-12-01T22:49:19.303Z,102617.03
2022-12-01T22:51:49.453Z,102627.25
2022-12-01T22:54:27.779Z,102627.09
2022-12-01T22:57:04.052Z,102606.06
2022-12-01T22:59:35.347Z,102610.09
2022-12-01T23:02:16.519Z,102588.31
2022-12-01T23:04:49.105Z,102611.88
2022-12-01T23:07:34.650Z,102614.16
2022-12-01T23:10:13.085Z,102621.88
2022-12-01T23:12:41.205Z,102619.44
2022-12-01T23:15:21.536Z,102616.91
2022-12-01T23:17:50.155Z,102609.28
2022-12-01T23:20:31.256Z,102612.88
2022-12-01T23:23:00.717Z,102614.28
2022-12-01T23:25:29.618Z,102614.88
2022-12-01T23:28:01.181Z,102605.28
2022-12-01T23:30:29.427Z,102570.19
2022-12-01T23:33:17.368Z,102601.03
2022-12-01T23:35:51.886Z,102602.59
2022-12-01T23:38:23.245Z,102595.66
2022-12-01T23:40:53.626Z,102595.38
2022-12-01T23:43:24.699Z,102597.09
2022-12-01T23:46:02.641Z,102593.19
2022-12-01T23:48:35.363Z,102595.22
2022-12-01T23:51:05.378Z,102586.78
2022-12-01T23:53:34.218Z,102592.66
2022-12-01T23:56:06.722Z,102575.03
2022-12-01T23:58:35.435Z,102584.69
